Weather History for Ogallala, NE

Change the Weather History Date:

Sunday, January 12, 2014

  Actual Average Record
Temperature  
Mean Temperature 38 °F -  
Max Temperature 48 °F 34 °F 67 °F (1987)
Min Temperature 27 °F 8 °F -20 °F (1963)
Degree Days  
Heating Degree Days 28    
Moisture  
Dew Point 23 °F    
Average Humidity 56    
Maximum Humidity 80    
Minimum Humidity 29    
Precipitation  
Precipitation 0.00 in - - ()
Sea Level Pressure  
Sea Level Pressure 29.63 in    
Wind  
Wind Speed 10 mph (WNW)    
Max Wind Speed 26 mph    
Max Gust Speed 36 mph    
Visibility 10 miles    
Events      
Averages and records for this station are not official NWS values.
T = Trace of Precipitation, MM = Missing Value Source: NWS Daily Summary

Daily Weather History Graph

Daily Weather History Graph

Search for Another Location

Airport:

Trip Planner

Search our weather history database for the weather conditions in past years. The results will help you decide how hot, cold, wet, or windy it might be!

Date:

Astronomy

Jan. 12, 2014 Rise Set
Actual Time 7:11 AM MST 4:40 PM MST
Civil Twilight 6:40 AM MST 5:10 PM MST
Nautical Twilight 6:06 AM MST 5:44 PM MST
Astronomical Twilight 5:33 AM MST 6:17 PM MST
Moon 2:09 PM MST (1/12) 4:11 AM MST (1/12)
Length of Visible Light 10h 29m
Length of Day
9h 28m
Waxing Gibbous, 90% of the Moon is Illuminated
Jan 12
Waxing Gibbous
Jan 15
Full
Jan 23
Last Quarter
Jan 30
New
Feb 6
First Quarter

Hourly Weather History & Observations

Time (MST) Temp. Windchill Dew Point Humidity Pressure Visibility Wind Dir Wind Speed Gust Speed Precip Events Conditions
12:15 AM 36.7 °F 29.9 °F 25.7 °F 64% 29.55 in 10.0 mi West 9.2 mph - N/A   Clear
12:35 AM 35.6 °F 29.2 °F 25.5 °F 67% 29.55 in 10.0 mi NW 8.1 mph - N/A   Clear
12:55 AM 35.8 °F 29.4 °F 25.5 °F 66% 29.53 in 10.0 mi SW 8.1 mph - N/A   Clear
1:15 AM 36.0 °F 29.0 °F 25.7 °F 66% 29.54 in 10.0 mi WSW 9.2 mph - N/A   Clear
1:35 AM 34.0 °F 27.2 °F 25.5 °F 71% 29.53 in 10.0 mi WSW 8.1 mph - N/A   Clear
1:55 AM 33.1 °F 26.9 °F 25.2 °F 73% 29.53 in 10.0 mi WSW 6.9 mph - N/A   Clear
2:15 AM 32.0 °F 24.8 °F 25.3 °F 76% 29.53 in 10.0 mi WSW 8.1 mph - N/A   Clear
2:35 AM 32.0 °F 28.7 °F 25.2 °F 76% 29.53 in 10.0 mi North 3.5 mph - N/A   Clear
2:55 AM 32.9 °F 28.5 °F 25.0 °F 73% 29.52 in 10.0 mi SW 4.6 mph - N/A   Clear
3:15 AM 31.1 °F 22.4 °F 24.6 °F 77% 29.52 in 10.0 mi WSW 10.4 mph - N/A   Clear
3:35 AM 30.4 °F 24.5 °F 23.9 °F 77% 29.52 in 10.0 mi West 5.8 mph - N/A   Clear
3:55 AM 31.5 °F 26.8 °F 23.9 °F 74% 29.52 in 10.0 mi West 4.6 mph - N/A   Clear
4:15 AM 30.9 °F - 23.7 °F 75% 29.51 in 10.0 mi Calm Calm - N/A   Clear
4:35 AM 29.8 °F 26.3 °F 23.7 °F 78% 29.51 in 10.0 mi SW 3.5 mph - N/A   Clear
4:55 AM 30.6 °F 23.8 °F 24.3 °F 77% 29.51 in 10.0 mi SW 6.9 mph - N/A   Clear
5:15 AM 29.3 °F 22.3 °F 23.9 °F 80% 29.51 in 10.0 mi West 6.9 mph - N/A   Clear
5:35 AM 30.4 °F 26.9 °F 24.4 °F 79% 29.51 in 10.0 mi West 3.5 mph - N/A   Clear
5:55 AM 31.5 °F 24.9 °F 24.6 °F 76% 29.52 in 10.0 mi WNW 6.9 mph - N/A   Clear
6:15 AM 32.2 °F - 24.8 °F 74% 29.52 in 10.0 mi Calm Calm - N/A   Clear
6:35 AM 32.0 °F 28.7 °F 24.4 °F 74% 29.51 in 10.0 mi West 3.5 mph - N/A   Clear
6:55 AM 32.2 °F - 23.9 °F 72% 29.52 in 10.0 mi Calm Calm - N/A   Clear
7:15 AM 31.6 °F 28.3 °F 23.9 °F 73% 29.50 in 10.0 mi SW 3.5 mph - N/A   Clear
7:35 AM 44.6 °F 36.6 °F 27.5 °F 51% 29.50 in 10.0 mi NW 19.6 mph 25.3 mph N/A   Clear
7:55 AM 45.1 °F 36.2 °F 27.7 °F 50% 29.51 in 10.0 mi NW 25.3 mph 32.2 mph N/A   Clear
8:15 AM 45.7 °F 37.8 °F 28.0 °F 50% 29.52 in 10.0 mi NW 20.7 mph 24.2 mph N/A   Clear
8:35 AM 45.5 °F 37.6 °F 27.5 °F 49% 29.52 in 10.0 mi NNW 20.7 mph 24.2 mph N/A   Clear
8:55 AM 44.6 °F 36.6 °F 28.2 °F 53% 29.52 in 10.0 mi NW 19.6 mph - N/A   Clear
9:15 AM 44.2 °F 36.2 °F 28.6 °F 54% 29.52 in 10.0 mi NNW 19.6 mph - N/A   Clear
9:35 AM 45.9 °F 37.8 °F 29.3 °F 52% 29.52 in 10.0 mi NW 21.9 mph 27.6 mph N/A   Clear
9:55 AM 48.0 °F - 29.3 °F 48% 29.49 in 10.0 mi NNW 26.5 mph 35.7 mph N/A   Clear
10:15 AM 48.4 °F - 28.4 °F 46% 29.54 in 10.0 mi NNW 17.3 mph 28.8 mph N/A   Clear
10:35 AM 48.2 °F - 27.9 °F 45% 29.58 in 10.0 mi WNW 3.5 mph - N/A   Scattered Clouds
10:55 AM 47.8 °F - 28.2 °F 47% 29.58 in 10.0 mi Calm Calm - N/A   Mostly Cloudy
11:15 AM 48.2 °F - 28.4 °F 46% 29.57 in 10.0 mi Calm Calm - N/A   Overcast
11:35 AM 47.7 °F - 27.3 °F 45% 29.58 in 10.0 mi WNW 4.6 mph - N/A   Mostly Cloudy
11:55 AM 46.8 °F - 25.7 °F 44% 29.61 in 10.0 mi NW 8.1 mph 16.1 mph N/A   Overcast
12:15 PM 46.6 °F - 24.8 °F 43% 29.60 in 10.0 mi NW 11.5 mph 19.6 mph N/A   Overcast
12:35 PM 46.4 °F 40.1 °F 23.9 °F 41% 29.60 in 10.0 mi WNW 15.0 mph - N/A   Overcast
12:55 PM 46.6 °F - 22.5 °F 39% 29.60 in 10.0 mi NW 19.6 mph 25.3 mph N/A   Overcast
1:15 PM 46.9 °F - 20.7 °F 35% 29.61 in 10.0 mi NW 17.3 mph 26.5 mph N/A   Overcast
1:35 PM 47.1 °F - 19.6 °F 34% 29.61 in 10.0 mi NW 19.6 mph 25.3 mph N/A   Overcast
1:55 PM 47.3 °F - 18.5 °F 32% 29.61 in 10.0 mi WNW 17.3 mph 27.6 mph N/A   Overcast
2:15 PM 47.3 °F - 17.4 °F 30% 29.63 in 10.0 mi WNW 20.7 mph 24.2 mph N/A   Overcast
2:35 PM 47.3 °F - 16.7 °F 30% 29.63 in 10.0 mi WNW 17.3 mph - N/A   Mostly Cloudy
2:55 PM 47.5 °F - 16.2 °F 29% 29.64 in 10.0 mi WNW 17.3 mph - N/A   Mostly Cloudy
3:15 PM 46.8 °F - 15.6 °F 29% 29.65 in 10.0 mi WNW 13.8 mph - N/A   Scattered Clouds
3:35 PM 45.9 °F 39.7 °F 15.8 °F 30% 29.66 in 10.0 mi West 13.8 mph - N/A   Clear
3:55 PM 45.5 °F 38.6 °F 15.1 °F 29% 29.66 in 10.0 mi WNW 16.1 mph 20.7 mph N/A   Clear
4:15 PM 44.8 °F 37.1 °F 14.9 °F 30% 29.66 in 10.0 mi WNW 18.4 mph 26.5 mph N/A   Clear
4:35 PM 43.9 °F 36.2 °F 14.9 °F 31% 29.68 in 10.0 mi WNW 17.3 mph 23.0 mph N/A   Clear
4:55 PM 42.8 °F 36.2 °F 15.4 °F 33% 29.68 in 10.0 mi NW 12.7 mph - N/A   Scattered Clouds
5:15 PM 42.4 °F 34.1 °F 19.6 °F 40% 29.70 in 10.0 mi NNW 18.4 mph - N/A   Scattered Clouds
5:35 PM 40.3 °F 31.9 °F 21.2 °F 47% 29.72 in 10.0 mi NNW 16.1 mph - N/A   Clear
5:55 PM 38.3 °F 30.5 °F 22.1 °F 52% 29.73 in 10.0 mi NW 12.7 mph 18.4 mph N/A   Clear
6:15 PM 38.8 °F 30.0 °F 22.3 °F 51% 29.75 in 10.0 mi NW 16.1 mph - N/A   Mostly Cloudy
6:35 PM 39.4 °F 31.4 °F 21.2 °F 48% 29.76 in 10.0 mi NW 13.8 mph - N/A   Mostly Cloudy
6:55 PM 37.4 °F 29.3 °F 21.6 °F 53% 29.77 in 10.0 mi NW 12.7 mph - N/A   Clear
7:15 PM 36.0 °F 27.5 °F 21.2 °F 55% 29.79 in 10.0 mi WNW 12.7 mph - N/A   Clear
7:35 PM 33.6 °F 26.8 °F 20.8 °F 59% 29.80 in 10.0 mi West 8.1 mph - N/A   Clear
7:55 PM 28.8 °F - 19.8 °F 69% 29.81 in 10.0 mi Calm Calm - N/A   Clear
8:15 PM 29.7 °F 24.7 °F 20.1 °F 68% 29.82 in 10.0 mi SW 4.6 mph - N/A   Scattered Clouds
8:35 PM 32.7 °F 23.0 °F 23.5 °F 69% 29.81 in 10.0 mi WNW 13.8 mph 19.6 mph N/A   Mostly Cloudy
8:55 PM 36.1 °F 27.7 °F 23.4 °F 60% 29.82 in 10.0 mi WNW 12.7 mph - N/A   Mostly Cloudy
9:15 PM 32.7 °F 25.0 °F 23.0 °F 67% 29.83 in 10.0 mi West 9.2 mph - N/A   Clear
9:35 PM 28.6 °F 19.3 °F 22.1 °F 77% 29.83 in 10.0 mi West 10.4 mph - N/A   Clear
9:55 PM 27.3 °F 19.1 °F 21.6 °F 79% 29.82 in 10.0 mi West 8.1 mph - N/A   Clear
10:15 PM 35.8 °F 26.1 °F 21.7 °F 57% 29.83 in 10.0 mi NW 16.1 mph - N/A   Clear
10:35 PM 35.8 °F 27.3 °F 21.4 °F 56% 29.83 in 10.0 mi NW 12.7 mph - N/A   Clear
10:55 PM 35.2 °F 25.4 °F 21.0 °F 56% 29.84 in 10.0 mi NW 16.1 mph - N/A   Clear
11:15 PM 35.4 °F 26.0 °F 20.3 °F 54% 29.84 in 10.0 mi NW 15.0 mph - N/A   Clear
11:35 PM 34.3 °F 23.9 °F 19.9 °F 56% 29.85 in 10.0 mi WNW 17.3 mph 23.0 mph N/A   Clear
11:55 PM 32.4 °F 22.1 °F 19.9 °F 60% 29.85 in 10.0 mi WNW 15.0 mph - N/A   Clear